»·PEaware :: N8833D EGLL-EIDW

N8833D :: EGLL-EIDW

FLIGHT INFORMATION

Flight Status: Arrived
Operator: Privately registered:
United States
More flights under this callsign
Pilot: Cooper L. (8467)
Aircraft: AIRBUS A320
(A320)
More flights by this aircraft type
Origin: EGLL Heathrow
United Kingdom
Destination: EIDW Dublin Intl
Ireland
More flights between these airports :: More routes between these airports
Route: CPT KENET PEMOB VATRY
File this flight plan on PilotEdge
Remarks:
Altitude:
(Current/Filed)
28,200ft
Speed:
(Current/Filed)
458kts
Departed: 27-Oct-15 06:39 PM
Arrived: 27-Oct-15 07:32 PM
Distance/Time
Traveled:
242nm/0:53
Distance/Time
To Go:
Arrived

Flight Plot

Page will automatically refresh every two minutes.


Map Options




Map Legend


Flown Route
Filed Route
Departure Airport
Arrival Airport
Navaid (VOR, NDB)
Fix

Horizontal Profiles

Position Reports

Time Latitude Longitude Heading Altitude Ground
Speed
27-Oct-15 18:36 51.477651 -0.445202 270 92ft 116kts
27-Oct-15 18:38 51.475557 -0.519038 258 1806ft 191kts
27-Oct-15 18:39 51.463108 -0.611369 260 3452ft 260kts
27-Oct-15 18:40 51.456686 -0.716103 267 6024ft 269kts
27-Oct-15 18:41 51.452173 -0.817880 271 6019ft 269kts
27-Oct-15 18:42 51.457756 -0.932876 283 6151ft 278kts
27-Oct-15 18:43 51.472467 -1.051456 280 9041ft 283kts
27-Oct-15 18:44 51.487365 -1.182256 280 10573ft 335kts
27-Oct-15 18:45 51.506506 -1.341227 281 11601ft 401kts
27-Oct-15 18:46 51.534534 -1.504199 294 14146ft 412kts
27-Oct-15 18:47 51.577701 -1.661405 293 16334ft 424kts
27-Oct-15 18:48 51.622760 -1.823097 293 18143ft 435kts
27-Oct-15 18:49 51.668908 -1.991576 293 19646ft 445kts
27-Oct-15 18:50 51.716385 -2.166852 293 20953ft 454kts
27-Oct-15 18:51 51.764111 -2.345275 293 22220ft 463kts
27-Oct-15 18:52 51.813086 -2.529907 290 23494ft 471kts
27-Oct-15 18:53 51.842653 -2.728532 282 24770ft 479kts
27-Oct-15 18:54 51.870358 -2.932598 282 26513ft 475kts
27-Oct-15 18:55 51.897296 -3.138828 282 27989ft 467kts
27-Oct-15 18:56 51.923660 -3.343036 282 28007ft 470kts
27-Oct-15 18:57 51.949870 -3.547830 281 28005ft 470kts
27-Oct-15 18:58 51.973792 -3.737012 281 28005ft 470kts
27-Oct-15 18:59 51.999312 -3.940234 281 28005ft 470kts
27-Oct-15 19:00 52.024026 -4.141021 281 28005ft 470kts
27-Oct-15 19:01 52.048138 -4.339896 281 28005ft 471kts
27-Oct-15 19:02 52.072713 -4.545666 281 28005ft 471kts
27-Oct-15 19:03 52.096859 -4.747632 280 28005ft 471kts
27-Oct-15 19:04 52.120437 -4.954105 280 28005ft 471kts
27-Oct-15 19:05 52.159159 -5.152196 313 28020ft 471kts
27-Oct-15 19:06 52.268303 -5.263218 328 27191ft 468kts
27-Oct-15 19:07 52.376087 -5.343573 321 21843ft 376kts
27-Oct-15 19:08 52.460786 -5.437309 329 16114ft 378kts
27-Oct-15 19:09 52.556811 -5.503033 331 15274ft 376kts
27-Oct-15 19:10 52.656596 -5.553538 337 15276ft 380kts
27-Oct-15 19:11 52.756591 -5.604764 337 15276ft 380kts
27-Oct-15 19:11 52.839727 -5.647672 337 15275ft 380kts
27-Oct-15 19:12 52.939532 -5.698698 337 14522ft 376kts
27-Oct-15 19:13 53.037924 -5.749893 337 13476ft 372kts
27-Oct-15 19:14 53.134774 -5.800560 337 11702ft 368kts
27-Oct-15 19:15 53.181393 -5.925678 278 10867ft 326kts
27-Oct-15 19:16 53.206652 -6.058273 288 10267ft 280kts
27-Oct-15 19:17 53.232674 -6.170479 287 9553ft 256kts
27-Oct-15 19:18 53.270963 -6.323460 288 7942ft 265kts
27-Oct-15 19:19 53.250539 -6.492974 201 6975ft 297kts
27-Oct-15 19:20 53.187239 -6.735807 290 6976ft 254kts
27-Oct-15 19:21 53.255508 -6.935233 319 6980ft 232kts
27-Oct-15 19:22 53.324503 -6.850771 65 5881ft 220kts
27-Oct-15 19:23 53.369862 -6.683268 50 4966ft 219kts
27-Oct-15 19:24 53.440681 -6.635854 29 3912ft 191kts
27-Oct-15 19:25 53.439694 -6.562093 101 3503ft 159kts
27-Oct-15 19:26 53.433654 -6.495293 95 2694ft 145kts
27-Oct-15 19:27 53.429852 -6.427984 95 1903ft 146kts
27-Oct-15 19:28 53.426227 -6.361618 95 1031ft 140kts
27-Oct-15 19:29 53.422845 -6.297797 96 449ft 138kts
27-Oct-15 19:30 53.421630 -6.266384 43 250ft 7kts

Navigation Log

Ident Type
Flight plan parsing failed, navigation log unavailable